Los Angeles, California
Traffic Map
Current Weather Conditions
Los Angeles, California
Clear
Clear
59°
Feels Like: 59°
Wind Chill: 59° Ceiling: Unl
Heat Index: 59° Visibility: 10mi
Dew Point: 40° Wind: 0mph
Humidity: 49% Direction: ° ()
Pressure: 29.98in Gusts: 0mph
Raw Report DataKCQT 261147Z AUTO 00000KT 10SM CLR 15/04 A2998 RMK AO2 SLP149 T01500044 10183 20144 56012 $
Traffic Incident Summary
Active as of:
Severity:
Category:
InformationThere was an issue retrieving the traffic information for this location. Please try a different location or try again shortly.
Advertisements
Track Severe Weather on mobile